Time;durP1;ratioP1;P1;durP2;ratioP2;P2;SDS_P1;SDS_P2;PMS_P1;PMS_P2;Temp;Humidity;BMP_temperature;BMP_pressure;BME280_temperature;BME280_humidity;BME280_pressure;Samples;Min_cycle;Max_cycle;Signal;HPM_P1;HPM_P2
2023/10/15 00:00:26;;;;;;;12.07;6.17;;;;;;;15.16;63.62;96758.06;5047735;28;20564;-71
2023/10/15 00:02:53;;;;;;;10.57;5.80;;;;;;;15.34;63.67;96775.88;5067679;28;20283;-71
2023/10/15 00:05:23;;;;;;;10.30;5.97;;;;;;;15.41;63.30;96769.28;5071319;28;20195;-70
2023/10/15 00:07:51;;;;;;;12.23;6.87;;;;;;;15.22;63.57;96758.47;5071797;28;20193;-72
2023/10/15 00:10:25;;;;;;;11.90;6.30;;;;;;;15.26;63.72;96764.31;5073648;28;20691;-79
2023/10/15 00:12:54;;;;;;;9.00;5.60;;;;;;;15.35;64.16;96745.41;5070785;28;20562;-74
2023/10/15 00:15:25;;;;;;;8.60;5.33;;;;;;;15.25;63.88;96752.22;5068669;28;20189;-80
2023/10/15 00:17:54;;;;;;;14.80;6.40;;;;;;;15.27;64.00;96745.13;5067221;28;20224;-76
2023/10/15 00:20:31;;;;;;;12.90;5.97;;;;;;;15.27;63.80;96755.56;5068681;28;20192;-76
2023/10/15 00:23:05;;;;;;;10.00;5.53;;;;;;;15.04;64.36;96745.84;5067439;28;20193;-77
2023/10/15 00:25:35;;;;;;;16.33;5.10;;;;;;;14.49;66.44;96743.47;5067636;28;20189;-76
2023/10/15 00:28:06;;;;;;;9.77;5.80;;;;;;;14.16;67.04;96722.19;5068127;28;20246;-76
2023/10/15 00:30:34;;;;;;;7.60;5.03;;;;;;;14.19;67.56;96732.44;5066142;28;20211;-78
2023/10/15 00:33:18;;;;;;;8.40;5.43;;;;;;;14.32;67.75;96739.38;5068206;28;20203;-80
2023/10/15 00:35:45;;;;;;;10.20;5.60;;;;;;;14.18;68.28;96731.59;5067981;28;20767;-72
2023/10/15 00:38:17;;;;;;;13.03;5.83;;;;;;;14.15;68.66;96730.97;5067725;28;20227;-76
2023/10/15 00:40:51;;;;;;;8.93;5.17;;;;;;;14.11;69.16;96722.53;5068173;28;20198;-80
2023/10/15 00:43:20;;;;;;;10.23;5.87;;;;;;;14.37;67.59;96719.06;5065340;28;20223;-71
2023/10/15 00:45:48;;;;;;;7.73;4.80;;;;;;;14.50;66.75;96701.72;5067091;28;20193;-77
2023/10/15 00:48:33;;;;;;;11.17;6.03;;;;;;;14.60;66.53;96707.97;5066990;28;20204;-80
2023/10/15 00:51:11;;;;;;;10.13;5.40;;;;;;;14.51;66.72;96724.22;5067985;28;20345;-74
2023/10/15 00:53:47;;;;;;;14.97;5.60;;;;;;;14.34;67.24;96716.66;5067666;28;20203;-80
2023/10/15 00:56:19;;;;;;;12.70;5.13;;;;;;;14.41;66.52;96711.88;5049379;28;20614;-80
2023/10/15 01:01:26;;;;;;;11.10;5.70;;;;;;;14.57;66.14;96702.94;5067553;28;20313;-74
2023/10/15 01:03:59;;;;;;;9.67;5.37;;;;;;;14.21;66.72;96679.31;5066899;28;20184;-76
2023/10/15 01:09:10;;;;;;;10.67;5.47;;;;;;;14.23;67.42;96697.44;5067131;28;20283;-81
2023/10/15 01:11:44;;;;;;;11.57;5.30;;;;;;;14.18;67.46;96695.13;5054527;28;20560;-77
2023/10/15 01:14:11;;;;;;;9.53;4.97;;;;;;;14.05;68.00;96683.88;5057961;28;20197;-77
2023/10/15 01:16:39;;;;;;;10.00;5.73;;;;;;;13.70;69.04;96664.47;5060935;28;20233;-76
2023/10/15 01:21:58;;;;;;;10.77;5.47;;;;;;;13.63;69.83;96689.22;5068162;28;20192;-80
2023/10/15 01:24:26;;;;;;;9.20;5.73;;;;;;;13.50;69.46;96629.31;5051205;28;20189;-82
2023/10/15 01:27:04;;;;;;;8.20;5.30;;;;;;;14.05;68.92;96683.88;5048487;28;20693;-74
2023/10/15 01:29:34;;;;;;;9.00;5.40;;;;;;;13.87;69.09;96675.47;5055951;28;20190;-78
2023/10/15 01:32:06;;;;;;;7.57;5.10;;;;;;;13.74;68.46;96678.97;5058851;28;20196;-82
2023/10/15 01:34:45;;;;;;;8.67;4.80;;;;;;;13.59;69.26;96677.31;5059712;28;20189;-81
2023/10/15 01:40:31;;;;;;;10.50;5.43;;;;;;;13.52;69.45;96652.63;5054066;28;20197;-82
2023/10/15 01:42:46;;;;;;;9.63;5.47;;;;;;;13.77;69.39;96676.16;5050683;28;20639;-81
2023/10/15 01:45:16;;;;;;;11.20;5.37;;;;;;;13.71;69.27;96684.34;5048790;28;20691;-82
2023/10/15 01:50:23;;;;;;;9.57;6.33;;;;;;;13.56;70.16;96685.34;5049864;28;20684;-77
2023/10/15 01:53:01;;;;;;;10.90;7.27;;;;;;;13.54;70.05;96687.19;5058322;28;20208;-80
2023/10/15 01:55:35;;;;;;;13.07;8.63;;;;;;;13.02;72.02;96679.16;5056841;28;20196;-81
2023/10/15 01:58:05;;;;;;;15.07;10.00;;;;;;;12.79;73.33;96685.75;5059226;28;20323;-78
2023/10/15 02:03:13;;;;;;;11.07;8.13;;;;;;;12.80;74.02;96679.63;5068305;28;20224;-76
2023/10/15 02:05:42;;;;;;;14.67;8.60;;;;;;;12.72;74.17;96681.00;5068070;28;20187;-80
2023/10/15 02:08:12;;;;;;;12.00;8.33;;;;;;;12.91;73.31;96686.75;5070001;28;20195;-79
2023/10/15 02:10:47;;;;;;;12.13;8.67;;;;;;;12.96;73.33;96685.56;5067845;28;20191;-79
2023/10/15 02:13:17;;;;;;;15.77;10.90;;;;;;;12.82;74.20;96685.56;5069906;28;20210;-77
2023/10/15 02:15:45;;;;;;;13.87;10.03;;;;;;;12.72;74.40;96687.03;5069655;28;20190;-80
2023/10/15 02:18:14;;;;;;;12.57;9.63;;;;;;;12.84;73.19;96667.25;5069623;28;20768;-77
2023/10/15 02:20:46;;;;;;;15.43;9.10;;;;;;;12.53;73.36;96629.31;5068867;28;20238;-72
2023/10/15 02:23:20;;;;;;;11.53;7.77;;;;;;;12.88;72.73;96667.00;5067131;28;20530;-72
2023/10/15 02:25:58;;;;;;;11.43;7.60;;;;;;;12.56;73.88;96670.69;5069352;28;20649;-74
2023/10/15 02:28:31;;;;;;;10.97;7.67;;;;;;;12.64;74.31;96673.66;5068482;28;20204;-77
2023/10/15 02:33:38;;;;;;;14.00;7.37;;;;;;;12.58;74.60;96663.66;5069456;28;20191;-80
2023/10/15 02:36:09;;;;;;;12.13;7.10;;;;;;;12.44;74.98;96665.38;5068602;28;20195;-77
2023/10/15 02:38:38;;;;;;;11.07;7.47;;;;;;;12.50;74.38;96665.88;5069202;28;20292;-80
2023/10/15 02:41:11;;;;;;;7.97;6.47;;;;;;;12.47;74.67;96665.22;5067297;28;20182;-77
2023/10/15 02:43:46;;;;;;;15.10;6.43;;;;;;;12.46;74.80;96656.59;5067994;28;20209;-81
2023/10/15 02:46:23;;;;;;;9.20;6.70;;;;;;;12.43;74.57;96659.34;5069072;28;20272;-79
2023/10/15 02:48:54;;;;;;;9.07;5.77;;;;;;;12.46;74.22;96656.59;5067024;28;20615;-79
2023/10/15 02:51:25;;;;;;;11.33;6.20;;;;;;;12.30;74.68;96654.97;5069840;28;20293;-81
2023/10/15 02:53:54;;;;;;;9.90;5.83;;;;;;;12.41;74.25;96650.81;5068674;28;20258;-77
2023/10/15 02:56:22;;;;;;;10.03;6.50;;;;;;;12.56;73.58;96643.88;5068033;28;20575;-81
2023/10/15 02:58:50;;;;;;;10.23;6.73;;;;;;;12.80;73.04;96648.44;5068189;28;20191;-82
2023/10/15 03:01:27;;;;;;;11.03;6.37;;;;;;;12.93;72.63;96648.53;5067581;28;20207;-79
2023/10/15 03:03:55;;;;;;;13.93;8.10;;;;;;;12.92;72.65;96646.88;5067671;28;20188;-77
2023/10/15 03:06:34;;;;;;;10.70;7.97;;;;;;;12.75;73.45;96645.28;5068024;28;20179;-74
2023/10/15 03:09:11;;;;;;;12.57;8.57;;;;;;;12.75;73.80;96649.66;5068746;28;20256;-75
2023/10/15 03:11:38;;;;;;;11.23;8.40;;;;;;;12.71;73.72;96645.56;5066772;28;20194;-79
2023/10/15 03:14:06;;;;;;;13.27;8.67;;;;;;;12.63;74.79;96643.41;5067366;28;20223;-71
2023/10/15 03:16:35;;;;;;;11.23;8.40;;;;;;;12.60;74.26;96635.81;5067226;28;20667;-74
2023/10/15 03:19:23;;;;;;;12.37;8.37;;;;;;;12.69;74.56;96648.25;5067881;28;20222;-71
2023/10/15 03:21:58;;;;;;;15.03;8.33;;;;;;;12.54;75.36;96637.94;5068970;28;20190;-78
2023/10/15 03:24:32;;;;;;;13.77;8.97;;;;;;;12.53;74.66;96633.69;5067365;28;20199;-74
2023/10/15 03:27:00;;;;;;;10.90;7.63;;;;;;;12.41;75.57;96624.00;5068834;28;20186;-76
2023/10/15 03:29:27;;;;;;;10.43;7.73;;;;;;;12.38;76.19;96608.63;5067986;28;20249;-72
2023/10/15 03:32:04;;;;;;;12.50;8.27;;;;;;;12.39;76.33;96618.91;5068168;28;20197;-80
2023/10/15 03:34:36;;;;;;;12.57;8.37;;;;;;;12.49;76.04;96619.22;5068638;28;20257;-69
2023/10/15 03:37:06;;;;;;;14.43;10.13;;;;;;;12.50;76.13;96611.31;5067563;28;20257;-76
2023/10/15 03:42:17;;;;;;;14.40;9.33;;;;;;;12.63;76.06;96619.22;5067670;28;21119;-80
2023/10/15 03:44:47;;;;;;;11.23;9.00;;;;;;;12.94;74.57;96616.41;5066761;28;20270;-76
2023/10/15 03:47:16;;;;;;;14.43;9.50;;;;;;;13.13;73.33;96608.34;5068458;28;20191;-75
2023/10/15 03:49:46;;;;;;;11.47;8.20;;;;;;;13.16;73.37;96608.13;5067230;28;20196;-80
2023/10/15 03:52:22;;;;;;;14.73;8.83;;;;;;;13.21;72.86;96604.31;5049902;28;20767;-73
2023/10/15 03:54:50;;;;;;;11.33;8.37;;;;;;;13.24;73.25;96608.50;5065477;28;20198;-80
2023/10/15 03:57:19;;;;;;;18.13;8.20;;;;;;;13.40;71.59;96610.03;5068427;28;20216;-77
2023/10/15 03:59:52;;;;;;;13.70;7.70;;;;;;;13.18;71.83;96583.72;5067472;28;20195;-74
2023/10/15 04:02:38;;;;;;;13.27;8.70;;;;;;;13.13;72.21;96601.34;5066476;28;20665;-79
2023/10/15 04:05:13;;;;;;;14.87;8.17;;;;;;;12.96;73.66;96599.78;5067248;28;20195;-77
2023/10/15 04:07:47;;;;;;;9.77;7.83;;;;;;;13.02;72.56;96591.59;5050730;28;20188;-81
2023/10/15 04:10:23;;;;;;;13.50;8.17;;;;;;;12.92;72.79;96595.69;5068471;28;20709;-72
2023/10/15 04:12:51;;;;;;;11.57;8.20;;;;;;;12.84;72.77;96586.69;5067447;28;20190;-74
2023/10/15 04:15:22;;;;;;;13.77;8.63;;;;;;;12.56;73.31;96577.19;5067631;28;20181;-79
2023/10/15 04:17:51;;;;;;;11.07;8.37;;;;;;;12.28;74.63;96575.41;5063784;28;20306;-80
2023/10/15 04:20:33;;;;;;;13.33;8.63;;;;;;;12.33;74.68;96580.34;5047186;28;20276;-75
2023/10/15 04:23:00;;;;;;;13.13;9.07;;;;;;;12.22;74.96;96557.59;5049599;28;20650;-76
2023/10/15 04:25:33;;;;;;;14.40;8.77;;;;;;;12.53;73.61;96576.56;5049233;28;20238;-77
2023/10/15 04:28:14;;;;;;;13.43;8.67;;;;;;;12.64;72.69;96585.34;5067523;28;20274;-76
2023/10/15 04:30:41;;;;;;;15.10;8.20;;;;;;;12.50;73.41;96572.38;5068181;28;20191;-77
2023/10/15 04:33:13;;;;;;;13.27;9.10;;;;;;;12.61;72.34;96580.31;5066724;28;20187;-76
2023/10/15 04:35:41;;;;;;;13.80;9.23;;;;;;;12.55;72.79;96569.50;5067925;28;20213;-71
2023/10/15 04:38:09;;;;;;;13.90;8.30;;;;;;;12.36;72.82;96571.53;5066435;28;20741;-76
2023/10/15 04:43:25;;;;;;;12.97;8.33;;;;;;;12.64;73.43;96580.16;5067230;28;20215;-79
2023/10/15 04:45:57;;;;;;;14.90;7.90;;;;;;;12.57;73.40;96576.25;5067103;28;20276;-80
2023/10/15 04:48:27;;;;;;;10.10;7.77;;;;;;;12.68;72.83;96576.44;5069875;28;20212;-74
2023/10/15 04:50:57;;;;;;;13.10;8.27;;;;;;;12.37;74.98;96575.78;5069285;28;20209;-73
2023/10/15 04:53:24;;;;;;;10.50;7.10;;;;;;;12.45;75.41;96571.78;5071612;28;20588;-74
2023/10/15 04:55:52;;;;;;;9.93;6.60;;;;;;;12.39;75.58;96573.94;5069229;28;20212;-75
2023/10/15 04:58:20;;;;;;;12.40;6.53;;;;;;;12.14;76.91;96574.56;5070787;28;20610;-68
2023/10/15 05:00:49;;;;;;;11.07;6.73;;;;;;;11.90;78.19;96556.09;5071210;28;20204;-76
2023/10/15 05:03:16;;;;;;;8.73;5.67;;;;;;;11.96;77.57;96575.66;5070441;28;20194;-79
2023/10/15 05:05:45;;;;;;;9.57;5.37;;;;;;;11.98;77.61;96558.22;5071485;28;20225;-72
2023/10/15 05:08:13;;;;;;;8.77;5.90;;;;;;;12.21;77.10;96566.34;5069935;28;20277;-76
2023/10/15 05:10:44;;;;;;;10.43;6.10;;;;;;;12.34;76.39;96568.19;5071159;28;20198;-80
2023/10/15 05:13:13;;;;;;;8.77;5.47;;;;;;;12.38;76.05;96559.28;5070031;28;20282;-69
2023/10/15 05:15:45;;;;;;;9.03;5.53;;;;;;;12.65;75.52;96553.22;5069902;28;20190;-73
2023/10/15 05:18:15;;;;;;;9.03;5.50;;;;;;;12.72;74.69;96559.72;5071951;28;20262;-76
2023/10/15 05:20:50;;;;;;;7.60;5.47;;;;;;;12.63;74.98;96575.88;5069047;28;20241;-74
2023/10/15 05:23:18;;;;;;;10.87;6.97;;;;;;;12.68;74.69;96566.03;5073787;28;20193;-75
2023/10/15 05:25:49;;;;;;;10.27;6.93;;;;;;;12.96;75.01;96571.19;5070909;28;20199;-72
2023/10/15 05:28:17;;;;;;;14.17;7.03;;;;;;;12.85;75.07;96568.44;5069371;28;20276;-72
2023/10/15 05:30:45;;;;;;;15.03;7.27;;;;;;;13.00;74.33;96572.66;5070399;28;20667;-73
2023/10/15 05:33:13;;;;;;;15.00;7.17;;;;;;;12.60;74.00;96500.75;5070144;28;20619;-69
2023/10/15 05:35:49;;;;;;;9.27;6.77;;;;;;;13.11;74.06;96579.00;5071039;28;20195;-70
2023/10/15 05:38:19;;;;;;;12.03;7.27;;;;;;;13.13;74.40;96577.97;5069092;28;20294;-69
2023/10/15 05:40:48;;;;;;;10.27;7.33;;;;;;;13.11;74.42;96553.00;5067294;28;20655;-68
2023/10/15 05:43:17;;;;;;;10.47;6.20;;;;;;;13.27;74.53;96579.69;5067207;28;20195;-69
2023/10/15 05:45:47;;;;;;;9.57;7.63;;;;;;;13.37;74.24;96571.22;5069409;28;20200;-67
2023/10/15 05:48:17;;;;;;;14.27;6.90;;;;;;;13.68;73.59;96565.66;5070101;28;20584;-68
2023/10/15 05:50:48;;;;;;;9.33;6.10;;;;;;;13.68;72.93;96570.88;5068647;28;20189;-72
2023/10/15 05:53:15;;;;;;;11.33;7.13;;;;;;;14.07;71.83;96575.25;5050901;28;20202;-69
2023/10/15 05:55:46;;;;;;;10.33;5.97;;;;;;;14.34;70.93;96570.78;5069435;28;20189;-72
2023/10/15 05:58:13;;;;;;;9.67;7.40;;;;;;;14.51;70.91;96577.44;5069179;28;20227;-69
2023/10/15 06:00:41;;;;;;;16.57;7.20;;;;;;;14.70;69.92;96577.84;5057999;28;20344;-67
2023/10/15 06:03:09;;;;;;;13.57;7.83;;;;;;;14.63;68.89;96568.81;5063422;28;20676;-77
2023/10/15 06:05:37;;;;;;;11.10;6.60;;;;;;;14.81;68.86;96567.53;5053383;28;20198;-67
2023/10/15 06:08:05;;;;;;;9.63;6.33;;;;;;;15.16;68.22;96585.91;5049800;28;20197;-73
2023/10/15 06:10:34;;;;;;;11.47;7.43;;;;;;;15.31;68.00;96587.41;5054249;28;20255;-79
2023/10/15 06:13:01;;;;;;;13.77;6.37;;;;;;;15.42;67.97;96587.47;5062980;28;20215;-72
2023/10/15 06:15:29;;;;;;;11.63;6.57;;;;;;;15.67;67.09;96590.00;5066426;28;20226;-72
2023/10/15 06:17:58;;;;;;;10.33;6.67;;;;;;;15.73;66.78;96588.72;5072618;28;20236;-73
2023/10/15 06:20:27;;;;;;;12.90;6.97;;;;;;;15.68;66.40;96576.00;5043657;28;20186;-75
2023/10/15 06:23:03;;;;;;;11.50;6.23;;;;;;;15.93;66.32;96588.09;5057298;28;20742;-71
2023/10/15 06:25:31;;;;;;;12.53;8.20;;;;;;;16.00;65.92;96595.34;5041902;28;20190;-70
2023/10/15 06:27:59;;;;;;;12.43;7.30;;;;;;;16.23;65.60;96591.03;5060060;28;20278;-68
2023/10/15 06:30:35;;;;;;;12.60;6.30;;;;;;;16.19;65.82;96573.91;5059902;28;20204;-79
2023/10/15 06:33:03;;;;;;;16.03;6.40;;;;;;;16.59;64.42;96582.22;5076830;28;20217;-71
2023/10/15 06:35:32;;;;;;;10.37;7.57;;;;;;;16.78;63.63;96595.50;5066456;28;20196;-78
2023/10/15 06:38:01;;;;;;;13.87;6.60;;;;;;;17.18;62.42;96586.22;5072483;28;20239;-68
2023/10/15 06:40:31;;;;;;;10.03;6.77;;;;;;;17.17;63.04;96586.31;5070582;28;20195;-71
2023/10/15 06:43:02;;;;;;;15.77;5.53;;;;;;;17.29;62.61;96578.31;5066837;28;20694;-72
2023/10/15 06:45:30;;;;;;;8.57;5.97;;;;;;;17.27;62.14;96585.47;5071514;28;20210;-73
2023/10/15 06:48:00;;;;;;;15.03;6.67;;;;;;;17.62;61.26;96593.19;5066801;28;20229;-67
2023/10/15 06:50:27;;;;;;;6.97;5.07;;;;;;;17.73;62.70;96590.50;5065923;28;20198;-73
2023/10/15 06:52:55;;;;;;;10.30;6.00;;;;;;;17.88;62.03;96576.16;5064898;28;20588;-78
2023/10/15 06:55:24;;;;;;;12.33;5.20;;;;;;;17.81;61.19;96570.59;5063549;28;20198;-70
2023/10/15 06:57:53;;;;;;;11.83;5.30;;;;;;;18.12;61.18;96583.78;5061694;28;20256;-76
2023/10/15 07:00:21;;;;;;;13.10;4.80;;;;;;;18.36;60.31;96571.25;5058568;28;20195;-70
2023/10/15 07:02:55;;;;;;;9.83;4.50;;;;;;;18.38;59.65;96574.59;5059665;28;20203;-72
2023/10/15 07:05:25;;;;;;;9.73;4.43;;;;;;;18.51;59.08;96567.34;5047560;28;20200;-74
2023/10/15 07:07:58;;;;;;;8.10;4.80;;;;;;;18.52;59.29;96572.50;5049545;28;20287;-74
2023/10/15 07:10:29;;;;;;;8.50;5.00;;;;;;;18.57;59.02;96567.66;5057226;28;20286;-80
2023/10/15 07:12:57;;;;;;;8.23;5.17;;;;;;;18.73;59.97;96561.13;5056918;28;20184;-70
2023/10/15 07:15:25;;;;;;;8.27;4.90;;;;;;;18.74;59.21;96566.22;5059931;28;20857;-72
2023/10/15 07:17:54;;;;;;;13.77;5.37;;;;;;;18.72;59.97;96548.97;5052654;28;20247;-71
2023/10/15 07:20:26;;;;;;;13.60;6.43;;;;;;;18.81;58.65;96548.19;5047226;28;20205;-78
2023/10/15 07:23:02;;;;;;;10.43;5.93;;;;;;;18.84;58.61;96559.22;5067006;28;20192;-75
2023/10/15 07:25:33;;;;;;;9.20;5.37;;;;;;;18.95;58.38;96553.06;5060792;28;20196;-81
2023/10/15 07:28:04;;;;;;;10.13;5.33;;;;;;;18.78;57.42;96520.41;5057447;28;20200;-79
2023/10/15 07:30:37;;;;;;;9.40;5.37;;;;;;;18.97;57.18;96530.97;5060821;28;20295;-74
2023/10/15 07:33:06;;;;;;;9.57;6.03;;;;;;;19.20;57.17;96537.66;5058615;28;20765;-69
2023/10/15 07:35:35;;;;;;;10.40;6.50;;;;;;;19.10;57.22;96528.09;5049811;28;20714;-71
2023/10/15 07:38:05;;;;;;;10.00;5.50;;;;;;;19.41;56.85;96534.97;5048296;28;20774;-80
2023/10/15 07:40:34;;;;;;;10.40;5.00;;;;;;;19.39;56.55;96553.47;5059871;28;20231;-75
2023/10/15 07:43:03;;;;;;;13.17;6.47;;;;;;;19.71;56.04;96541.88;5067923;28;20271;-72
2023/10/15 07:45:33;;;;;;;9.57;4.97;;;;;;;19.80;55.73;96536.66;5062582;28;20199;-71
2023/10/15 07:48:03;;;;;;;10.77;5.03;;;;;;;19.75;54.75;96522.25;5053408;28;20209;-69
2023/10/15 07:50:34;;;;;;;9.40;4.93;;;;;;;19.85;55.07;96533.59;5067606;28;20659;-74
2023/10/15 07:53:04;;;;;;;7.90;5.10;;;;;;;19.84;55.24;96522.28;5065681;28;20223;-66
2023/10/15 07:55:32;;;;;;;11.10;5.57;;;;;;;19.87;54.77;96529.03;5056523;28;20197;-74
2023/10/15 07:58:00;;;;;;;9.63;5.77;;;;;;;19.98;54.73;96531.50;5047333;28;20892;-72
2023/10/15 08:00:33;;;;;;;11.17;6.07;;;;;;;19.95;54.48;96535.25;5046666;28;20694;-71
2023/10/15 08:03:07;;;;;;;9.97;4.80;;;;;;;19.94;53.85;96532.75;5016116;28;20197;-71
2023/10/15 08:05:39;;;;;;;11.13;5.77;;;;;;;20.00;55.10;96525.16;5046819;28;20189;-74
2023/10/15 08:08:07;;;;;;;13.27;6.10;;;;;;;19.99;54.57;96512.16;5028472;28;20200;-75
2023/10/15 08:10:36;;;;;;;14.03;5.53;;;;;;;19.93;54.33;96502.19;5036964;28;20193;-75
2023/10/15 08:13:09;;;;;;;9.93;6.10;;;;;;;20.22;53.88;96514.34;5046752;28;20178;-76
2023/10/15 08:15:38;;;;;;;8.90;6.10;;;;;;;20.12;53.93;96491.63;5049308;28;20593;-73
2023/10/15 08:18:06;;;;;;;10.97;5.50;;;;;;;20.46;53.44;96500.72;5047639;28;20772;-73
2023/10/15 08:20:35;;;;;;;11.07;5.00;;;;;;;20.62;52.43;96493.03;5058092;28;20201;-78
2023/10/15 08:23:02;;;;;;;7.07;4.07;;;;;;;20.77;51.63;96503.94;5049961;28;20266;-79
2023/10/15 08:25:32;;;;;;;8.93;4.60;;;;;;;20.81;50.91;96508.72;5054550;28;20197;-79
2023/10/15 08:28:02;;;;;;;9.83;4.53;;;;;;;20.73;50.12;96508.63;5069043;28;20268;-77
2023/10/15 08:30:34;;;;;;;9.37;3.80;;;;;;;20.83;51.02;96490.19;5071070;28;20645;-77
2023/10/15 08:33:10;;;;;;;7.67;3.90;;;;;;;20.96;49.75;96496.75;5053595;28;20298;-78
2023/10/15 08:35:40;;;;;;;10.77;5.00;;;;;;;20.99;50.58;96493.84;5069162;28;20607;-78
2023/10/15 08:38:10;;;;;;;8.33;4.43;;;;;;;21.11;49.77;96501.53;5069953;28;20609;-78
2023/10/15 08:40:41;;;;;;;9.63;4.57;;;;;;;21.20;50.46;96493.59;5070009;28;20197;-78
2023/10/15 08:43:20;;;;;;;11.77;5.27;;;;;;;21.18;49.48;96465.75;5053694;28;20656;-78
2023/10/15 08:45:52;;;;;;;9.13;3.70;;;;;;;21.08;50.21;96471.09;5065844;28;20229;-78
2023/10/15 08:48:25;;;;;;;7.80;4.20;;;;;;;21.42;49.17;96492.31;5069447;28;20198;-75
2023/10/15 08:50:54;;;;;;;11.03;5.23;;;;;;;21.42;48.62;96481.78;5069408;28;20207;-78
2023/10/15 08:53:26;;;;;;;10.23;4.43;;;;;;;21.70;48.32;96491.28;5068973;28;20297;-77
2023/10/15 08:56:01;;;;;;;7.80;3.50;;;;;;;21.60;48.60;96477.34;5069689;28;20199;-77
2023/10/15 08:58:33;;;;;;;6.17;3.40;;;;;;;21.62;47.47;96470.94;5068643;28;20300;-77
2023/10/15 09:01:02;;;;;;;8.33;3.30;;;;;;;21.57;47.96;96464.47;5046008;28;20248;-75
2023/10/15 09:03:31;;;;;;;13.17;4.10;;;;;;;21.79;46.79;96469.28;5071641;28;20209;-79
2023/10/15 09:06:01;;;;;;;11.13;4.90;;;;;;;21.72;47.04;96445.31;5059691;28;20308;-78
2023/10/15 09:08:29;;;;;;;7.63;4.23;;;;;;;21.93;46.83;96468.75;5051002;28;20276;-72
2023/10/15 09:10:57;;;;;;;8.27;3.90;;;;;;;21.94;46.26;96467.78;5060696;28;20196;-76
2023/10/15 09:13:27;;;;;;;8.47;3.70;;;;;;;21.95;46.09;96463.34;5068633;28;20194;-79
2023/10/15 09:16:34;;;;;;;5.33;3.27;;;;;;;21.84;46.27;96465.22;5059260;28;20287;-80
2023/10/15 09:20:00;;;;;;;8.67;3.20;;;;;;;21.81;46.64;96464.69;5049468;28;20726;-80
2023/10/15 09:23:21;;;;;;;10.87;3.40;;;;;;;21.96;46.47;96463.19;5056329;28;20195;-79
2023/10/15 09:26:23;;;;;;;7.40;3.60;;;;;;;22.13;45.90;96464.13;5068125;28;20208;-74
2023/10/15 09:29:40;;;;;;;6.60;3.40;;;;;;;22.30;45.73;96460.59;5069073;28;20298;-74
2023/10/15 09:32:25;;;;;;;6.77;3.60;;;;;;;22.39;44.36;96425.34;5068804;28;20408;-74
2023/10/15 09:34:55;;;;;;;11.20;3.77;;;;;;;22.42;44.20;96457.53;5070107;28;20195;-76
2023/10/15 09:37:25;;;;;;;6.07;3.53;;;;;;;22.43;44.33;96443.38;5069323;28;20225;-75
2023/10/15 09:39:56;;;;;;;8.63;3.40;;;;;;;22.20;44.14;96426.41;5067007;28;20224;-75
2023/10/15 09:42:33;;;;;;;10.30;3.23;;;;;;;22.40;43.81;96422.56;5069069;28;20184;-72
2023/10/15 09:45:05;;;;;;;7.57;3.90;;;;;;;22.72;43.54;96437.75;5069507;28;20282;-72
2023/10/15 09:47:33;;;;;;;7.13;3.40;;;;;;;22.51;44.52;96424.09;5070834;28;20199;-74
2023/10/15 09:50:06;;;;;;;6.30;3.53;;;;;;;22.51;44.28;96422.28;5066597;28;20194;-75
2023/10/15 09:52:35;;;;;;;5.80;3.67;;;;;;;22.77;43.60;96408.22;5068834;28;20203;-71
2023/10/15 09:55:11;;;;;;;7.57;4.23;;;;;;;22.94;43.68;96417.81;5068665;28;20204;-73
2023/10/15 09:57:40;;;;;;;5.97;3.57;;;;;;;23.00;43.32;96412.72;5067999;28;20277;-77
2023/10/15 10:00:15;;;;;;;6.17;3.70;;;;;;;22.95;43.35;96411.56;5068523;28;20222;-72
2023/10/15 10:02:54;;;;;;;12.03;3.60;;;;;;;22.93;43.96;96413.56;5066275;28;20767;-71
2023/10/15 10:05:44;;;;;;;7.03;3.73;;;;;;;22.82;43.92;96366.31;5068470;28;20192;-74
2023/10/15 10:08:59;;;;;;;5.80;4.00;;;;;;;23.30;43.76;96411.31;5066935;28;20575;-75
2023/10/15 10:11:27;;;;;;;9.80;3.53;;;;;;;23.21;44.19;96407.84;5064668;28;20196;-71
2023/10/15 10:14:46;;;;;;;12.07;3.60;;;;;;;23.17;45.13;96406.50;5067405;28;20182;-78
2023/10/15 10:17:21;;;;;;;12.40;4.37;;;;;;;23.26;45.02;96388.84;5011740;28;20199;-72
2023/10/15 10:19:52;;;;;;;7.50;3.30;;;;;;;23.27;45.55;96390.50;5062023;28;20320;-78
2023/10/15 10:22:27;;;;;;;9.20;4.03;;;;;;;23.54;44.94;96387.56;5048488;28;20284;-75
2023/10/15 10:24:58;;;;;;;9.50;4.20;;;;;;;23.69;44.21;96385.91;5047189;28;20203;-76
2023/10/15 10:27:43;;;;;;;8.80;3.53;;;;;;;23.49;45.43;96384.59;5031718;28;20214;-73
2023/10/15 10:30:28;;;;;;;7.50;3.43;;;;;;;23.60;45.53;96376.31;5036385;28;20194;-72
2023/10/15 10:33:02;;;;;;;6.23;3.67;;;;;;;23.68;44.59;96355.16;5068670;28;20194;-73
2023/10/15 10:35:40;;;;;;;7.53;4.63;;;;;;;23.70;44.60;96349.72;5047580;28;20672;-72
2023/10/15 10:38:17;;;;;;;6.37;3.67;;;;;;;24.14;45.17;96365.03;5052114;28;20246;-72
2023/10/15 10:40:51;;;;;;;6.27;3.47;;;;;;;23.90;44.42;96351.00;5050576;28;20196;-78
2023/10/15 10:43:21;;;;;;;10.07;3.40;;;;;;;24.02;43.63;96355.78;5046194;28;20202;-74
2023/10/15 10:46:01;;;;;;;7.13;3.77;;;;;;;24.07;43.84;96358.75;5049106;28;20194;-75
2023/10/15 10:48:39;;;;;;;5.27;3.13;;;;;;;24.23;43.87;96349.94;5046903;28;20197;-75
2023/10/15 10:51:18;;;;;;;6.50;3.67;;;;;;;24.44;43.06;96354.66;5053589;28;20631;-74
2023/10/15 10:53:58;;;;;;;7.43;3.90;;;;;;;24.75;41.71;96344.94;5065473;28;20198;-74
2023/10/15 10:56:40;;;;;;;8.93;3.50;;;;;;;24.91;41.78;96347.50;5067611;28;20211;-76
2023/10/15 10:59:09;;;;;;;8.73;3.40;;;;;;;24.93;41.55;96346.31;5066683;28;20276;-70
2023/10/15 11:01:42;;;;;;;12.30;4.57;;;;;;;24.94;41.82;96339.19;5065936;28;20190;-75
2023/10/15 11:04:19;;;;;;;8.23;3.60;;;;;;;24.93;41.05;96319.00;5067029;28;20660;-74
2023/10/15 11:06:46;;;;;;;9.43;4.20;;;;;;;24.95;41.16;96325.78;5065184;28;20584;-72
2023/10/15 11:09:16;;;;;;;6.80;3.97;;;;;;;25.21;40.93;96324.56;5049595;28;20250;-77
2023/10/15 11:11:48;;;;;;;9.27;3.80;;;;;;;25.23;40.87;96325.22;5066340;28;20189;-76
2023/10/15 11:14:25;;;;;;;7.47;3.70;;;;;;;25.33;40.82;96323.97;5069506;28;20278;-74
2023/10/15 11:16:56;;;;;;;7.33;3.80;;;;;;;25.30;40.87;96321.72;5068158;28;20200;-70
2023/10/15 11:19:26;;;;;;;8.10;3.97;;;;;;;25.50;40.30;96322.88;5066890;28;20658;-71
2023/10/15 11:21:53;;;;;;;8.87;3.90;;;;;;;25.65;39.84;96320.25;5066897;28;20210;-74
2023/10/15 11:24:26;;;;;;;8.87;3.93;;;;;;;25.42;40.14;96317.66;5066527;28;20185;-70
2023/10/15 11:26:54;;;;;;;6.80;4.43;;;;;;;25.28;39.72;96320.22;5065569;28;20552;-79
2023/10/15 11:29:24;;;;;;;9.67;4.67;;;;;;;25.64;39.39;96324.72;5066366;28;20193;-78
2023/10/15 11:31:55;;;;;;;5.93;3.77;;;;;;;25.54;40.00;96300.31;5055126;28;20208;-78
2023/10/15 11:34:27;;;;;;;11.97;4.03;;;;;;;25.69;39.41;96316.25;5045069;28;20548;-80
2023/10/15 11:36:56;;;;;;;7.97;4.47;;;;;;;25.75;38.97;96320.81;5057078;28;20252;-77
2023/10/15 11:39:47;;;;;;;7.03;4.37;;;;;;;25.48;39.93;96314.28;5048779;28;20319;-76
2023/10/15 11:42:18;;;;;;;8.30;4.30;;;;;;;25.56;39.26;96295.63;5065670;28;20668;-74
2023/10/15 11:44:55;;;;;;;8.93;4.50;;;;;;;25.81;39.25;96302.34;5067057;28;20195;-76
2023/10/15 11:47:25;;;;;;;9.07;4.00;;;;;;;25.57;38.90;96265.47;5052393;28;20257;-78
2023/10/15 11:49:54;;;;;;;6.13;4.13;;;;;;;25.91;38.87;96294.13;5044983;28;20197;-81
2023/10/15 11:52:24;;;;;;;9.37;4.33;;;;;;;26.01;38.56;96296.50;5047006;28;20207;-77
2023/10/15 11:54:51;;;;;;;8.23;4.30;;;;;;;26.10;38.25;96298.06;5046212;28;20186;-75
2023/10/15 11:58:19;;;;;;;8.57;4.60;;;;;;;26.20;38.11;96293.31;5050898;28;20190;-72
2023/10/15 12:01:41;;;;;;;9.47;4.60;;;;;;;26.39;37.71;96288.25;5034254;28;20299;-74
2023/10/15 12:05:08;;;;;;;6.27;4.50;;;;;;;26.27;37.55;96294.22;5064351;28;20196;-75
2023/10/15 12:08:31;;;;;;;8.70;4.97;;;;;;;26.24;37.47;96291.94;5065917;28;20193;-78
2023/10/15 12:11:54;;;;;;;8.07;4.50;;;;;;;26.42;37.55;96287.06;5066427;28;20656;-76
2023/10/15 12:15:14;;;;;;;8.67;4.73;;;;;;;26.67;37.01;96272.41;5066766;28;20193;-75
2023/10/15 12:18:37;;;;;;;11.97;5.27;;;;;;;26.43;36.88;96283.41;5048382;28;20287;-74
2023/10/15 12:22:01;;;;;;;6.57;4.67;;;;;;;26.14;37.86;96281.59;5045515;28;20182;-70
2023/10/15 12:25:22;;;;;;;9.67;5.43;;;;;;;25.86;38.84;96280.59;5045676;28;20197;-72